Bradford Regional Airport
KBFD : now visible

Airfield :











YOU CAN JOIN US ON...

 
LOGIN :

Register | Disclaimer

   EN    FR    IT 

 









Legend :    VFR   Marginal VFR   IFR   Intensive IFR   Very Intensive IFR
Visi :
Ceiling :
>= 8 km
>= 3000ft
5 to 8 km
1000 to 3000 ft
1500m to 5 km
500 to 1000 ft
800 to 1500m
200 to 500 ft
< 800m
< 200 ft
Symbols :   Thunderstorms  Fog  Heavy snow  Heavy precipitations  Wind > 20 kt






- Airport Elevation : 2143 ft
- IATA code : BFD


KBFD - Bradford Regional

CURRENT METAR :
  • 220053Z AUTO 00000KT 4SM BR OVC003 15/13 A3025 RMK AO2 SLP238 T01500133

EXPIRED METARs :
  • 220024Z AUTO 00000KT 5SM BR OVC002 16/13 A3025 RMK AO2 T01560133
  • 212353Z AUTO 26006KT 8SM OVC003 16/13 A3025 RMK AO2 SLP238 60007 T01560133 10217 20156 53014
  • 212338Z AUTO 29007KT 9SM OVC004 16/13 A3025 RMK AO2 CIG 002V007 T01560133
  • 212253Z AUTO 28005KT 10SM BKN006 OVC010 16/14 A3023 RMK AO2 CIG 004V008 SLP230 T01610139
  • 212153Z AUTO 23004KT 10SM BKN008 OVC013 17/14 A3021 RMK AO2 CIG 006V011 SLP224 T01720144

TAF KBFD
Valid from the 22 at 01:00 until the 23 at 00:00 UTC


220030Z 2201/2224 00000KT 3SM BR OVC002
FM220700 00000KT 1/2SM FG OVC001
FM221200 14003KT 5SM BR OVC004
FM221700 22004KT P6SM OVC015
KZOB FIR / North America



MET'MAP, your aeronautical weather chart ! - Copyright ORBIFLY December 2007 - Disclaimer

ORBIFLY MET'MAP TEAM :

Programming & Development : Alexandra Zaïnal
Concept & original design : Baudouin d'Aumeries
Assistance for programming : Marc-Olivier Méhu
Technical & hardware support : Manuel Goepfert

Contact : metmap@orbifly.com




SOURCES & CREDITS :

   NOAA       Earth
Advisory